Terminal Aerodrome Forecast
Issued by NWS Springfield, MO

Home | Current Version | Previous Version | Text Only | Print | Product List | Glossary On
Versions: 1 2 3 4 5 6 7 8 9 10 11 12
000
FTUS43 KSGF 200520
TAFSGF
TAF
KSGF 200520Z 2006/2106 18005KT P6SM SCT250
     FM201400 22010KT P6SM FEW045 SCT250
     FM202300 21006KT P6SM SCT250=

USA.gov is the U.S. government's official web portal to all federal, state and local government web resources and services.